createdAt,value
2023-01-01T00:00:46.157Z,7.72
2023-01-01T00:03:13.548Z,7.75
2023-01-01T00:05:41.000Z,7.68
2023-01-01T00:08:08.402Z,7.76
2023-01-01T00:10:35.707Z,7.74
2023-01-01T00:13:03.126Z,7.80
2023-01-01T00:15:30.492Z,7.87
2023-01-01T00:17:58.028Z,7.87
2023-01-01T00:20:31.536Z,7.97
2023-01-01T00:23:02.566Z,7.93
2023-01-01T00:25:30.517Z,7.96
2023-01-01T00:27:57.881Z,7.93
2023-01-01T00:30:25.510Z,7.91
2023-01-01T00:32:54.991Z,7.87
2023-01-01T00:35:26.853Z,7.94
2023-01-01T00:37:55.215Z,7.84
2023-01-01T00:40:23.798Z,7.88
2023-01-01T00:42:51.714Z,7.84
2023-01-01T00:45:22.299Z,7.81
2023-01-01T00:47:52.163Z,7.78
2023-01-01T00:50:23.289Z,7.80
2023-01-01T00:52:51.025Z,7.79
2023-01-01T00:55:18.473Z,7.76
2023-01-01T00:57:45.815Z,7.74
2023-01-01T01:00:15.095Z,7.71
2023-01-01T01:02:42.620Z,7.68
2023-01-01T01:05:10.411Z,7.63
2023-01-01T01:07:38.780Z,7.64
2023-01-01T01:10:06.657Z,7.68
2023-01-01T01:12:35.167Z,7.67
2023-01-01T01:15:03.747Z,7.67
2023-01-01T01:17:31.530Z,7.71
2023-01-01T01:19:59.057Z,7.63
2023-01-01T01:22:28.880Z,7.65
2023-01-01T01:24:57.697Z,7.64
2023-01-01T01:27:28.298Z,7.62
2023-01-01T01:29:58.843Z,7.64
2023-01-01T01:32:26.376Z,7.59
2023-01-01T01:34:53.796Z,7.56
2023-01-01T01:37:21.278Z,7.55
2023-01-01T01:39:53.609Z,7.59
2023-01-01T01:42:21.865Z,7.55
2023-01-01T01:45:07.144Z,7.55
2023-01-01T01:47:46.431Z,7.57
2023-01-01T01:50:26.510Z,7.52
2023-01-01T01:52:56.903Z,7.51
2023-01-01T01:55:27.656Z,7.52
2023-01-01T01:57:55.146Z,7.56
2023-01-01T02:00:22.941Z,7.56
2023-01-01T02:03:19.148Z,7.57
2023-01-01T02:05:46.834Z,7.57
2023-01-01T02:08:15.814Z,7.59
2023-01-01T02:10:43.448Z,7.61
2023-01-01T02:13:11.161Z,7.62
2023-01-01T02:16:06.104Z,7.63
2023-01-01T02:18:43.943Z,7.62
2023-01-01T02:21:17.160Z,7.64
2023-01-01T02:24:22.950Z,7.65
2023-01-01T02:27:00.092Z,7.63
2023-01-01T02:29:40.523Z,7.57
2023-01-01T02:32:42.247Z,7.58
2023-01-01T02:35:34.656Z,7.59
2023-01-01T02:38:10.764Z,7.56
2023-01-01T02:40:51.413Z,7.54
2023-01-01T02:43:23.140Z,7.52
2023-01-01T02:45:54.151Z,7.52
2023-01-01T02:48:38.514Z,7.50
2023-01-01T02:51:31.122Z,7.51
2023-01-01T02:54:13.902Z,7.51
2023-01-01T02:56:47.633Z,7.48
2023-01-01T02:59:52.052Z,7.49
2023-01-01T03:02:50.677Z,7.52
2023-01-01T03:06:23.795Z,7.56
2023-01-01T03:08:57.064Z,7.54
2023-01-01T03:11:31.389Z,7.55
2023-01-01T03:14:03.519Z,7.56
2023-01-01T03:16:43.115Z,7.59
2023-01-01T03:19:26.266Z,7.58
2023-01-01T03:22:31.100Z,7.57
2023-01-01T03:25:04.525Z,7.57
2023-01-01T03:27:39.444Z,7.56
2023-01-01T03:30:11.169Z,7.56
2023-01-01T03:33:03.442Z,7.55
2023-01-01T03:35:35.382Z,7.52
2023-01-01T03:38:05.540Z,7.54
2023-01-01T03:40:38.414Z,7.55
2023-01-01T03:43:26.974Z,7.54
2023-01-01T03:45:55.784Z,7.52
2023-01-01T03:48:23.105Z,7.50
2023-01-01T03:51:01.989Z,7.51
2023-01-01T03:53:40.592Z,7.46
2023-01-01T03:56:21.930Z,7.46
2023-01-01T03:59:15.471Z,7.47
2023-01-01T04:01:48.688Z,7.44
2023-01-01T04:04:17.504Z,7.45
2023-01-01T04:06:45.342Z,7.44
2023-01-01T04:09:17.415Z,7.45
2023-01-01T04:12:03.956Z,7.44
2023-01-01T04:14:31.370Z,7.44
2023-01-01T04:16:59.813Z,7.37
2023-01-01T04:19:27.745Z,7.35
2023-01-01T04:21:55.038Z,7.35
2023-01-01T04:24:23.719Z,7.36
2023-01-01T04:26:52.618Z,7.35
2023-01-01T04:29:20.848Z,7.36
2023-01-01T04:31:48.826Z,7.37
2023-01-01T04:34:16.968Z,7.40
2023-01-01T04:36:44.316Z,7.41
2023-01-01T04:39:11.548Z,7.42
2023-01-01T04:41:38.919Z,7.46
2023-01-01T04:44:06.340Z,7.49
2023-01-01T04:46:33.698Z,7.50
2023-01-01T04:49:00.999Z,7.48
2023-01-01T04:51:28.402Z,7.49
2023-01-01T04:53:55.712Z,7.47
2023-01-01T04:56:23.393Z,7.49
2023-01-01T04:58:50.712Z,7.49
2023-01-01T05:01:23.761Z,7.48
2023-01-01T05:03:51.910Z,7.48
2023-01-01T05:06:21.118Z,7.46
2023-01-01T05:08:51.115Z,7.44
2023-01-01T05:11:21.346Z,7.45
2023-01-01T05:13:50.573Z,7.47
2023-01-01T05:16:20.821Z,7.46
2023-01-01T05:18:48.938Z,7.44
2023-01-01T05:21:19.978Z,7.45
2023-01-01T05:23:48.231Z,7.46
2023-01-01T05:26:23.503Z,7.44
2023-01-01T05:28:51.239Z,7.43
2023-01-01T05:31:21.392Z,7.43
2023-01-01T05:33:49.408Z,7.46
2023-01-01T05:36:19.406Z,7.46
2023-01-01T05:38:47.966Z,7.45
2023-01-01T05:41:17.495Z,7.44
2023-01-01T05:43:45.719Z,7.42
2023-01-01T05:46:18.601Z,7.42
2023-01-01T05:48:46.853Z,7.45
2023-01-01T05:51:16.290Z,7.42
2023-01-01T05:53:47.051Z,7.42
2023-01-01T05:56:15.883Z,7.43
2023-01-01T05:58:43.999Z,7.42
2023-01-01T06:01:15.514Z,7.43
2023-01-01T06:03:44.189Z,7.43
2023-01-01T06:06:14.394Z,7.45
2023-01-01T06:08:42.460Z,7.42
2023-01-01T06:11:12.278Z,7.41
2023-01-01T06:13:39.585Z,7.39
2023-01-01T06:16:07.456Z,7.38
2023-01-01T06:18:35.587Z,7.40
2023-01-01T06:21:08.888Z,7.38
2023-01-01T06:23:36.518Z,7.39
2023-01-01T06:26:05.840Z,7.37
2023-01-01T06:28:33.240Z,7.38
2023-01-01T06:31:02.568Z,7.37
2023-01-01T06:33:30.357Z,7.39
2023-01-01T06:35:57.820Z,7.36
2023-01-01T06:38:25.347Z,7.36
2023-01-01T06:41:06.882Z,7.38
2023-01-01T06:43:36.955Z,7.40
2023-01-01T06:46:05.972Z,7.41
2023-01-01T06:48:35.640Z,7.40
2023-01-01T06:51:12.243Z,7.40
2023-01-01T06:53:39.768Z,7.41
2023-01-01T06:56:08.351Z,7.42
2023-01-01T06:58:35.907Z,7.42
2023-01-01T07:01:11.208Z,7.44
2023-01-01T07:03:39.592Z,7.48
2023-01-01T07:06:07.913Z,7.49
2023-01-01T07:08:36.400Z,7.49
2023-01-01T07:11:04.054Z,7.52
2023-01-01T07:13:31.730Z,7.55
2023-01-01T07:16:00.496Z,7.56
2023-01-01T07:18:27.951Z,7.55
2023-01-01T07:21:03.978Z,7.57
2023-01-01T07:23:34.457Z,7.58
2023-01-01T07:26:01.933Z,7.64
2023-01-01T07:28:29.285Z,7.64
2023-01-01T07:30:56.611Z,7.70
2023-01-01T07:33:24.379Z,7.69
2023-01-01T07:35:51.764Z,7.67
2023-01-01T07:38:19.272Z,7.68
2023-01-01T07:40:46.665Z,7.69
2023-01-01T07:43:14.192Z,7.69
2023-01-01T07:45:41.563Z,7.72
2023-01-01T07:48:14.937Z,7.78
2023-01-01T07:50:43.375Z,7.80
2023-01-01T07:53:10.780Z,7.76
2023-01-01T07:55:39.485Z,7.79
2023-01-01T07:58:06.908Z,7.79
2023-01-01T08:00:35.333Z,7.84
2023-01-01T08:03:02.851Z,8.15
2023-01-01T08:05:30.315Z,8.04
2023-01-01T08:07:57.661Z,7.96
2023-01-01T08:10:24.978Z,7.96
2023-01-01T08:12:52.657Z,8.00
2023-01-01T08:15:19.941Z,7.97
2023-01-01T08:17:47.586Z,7.95
2023-01-01T08:20:15.701Z,8.00
2023-01-01T08:22:43.165Z,8.02
2023-01-01T08:25:10.475Z,7.97
2023-01-01T08:27:40.213Z,7.94
2023-01-01T08:30:08.333Z,7.94
2023-01-01T08:32:37.290Z,7.98
2023-01-01T08:35:05.404Z,7.96
2023-01-01T08:37:32.929Z,8.01
2023-01-01T08:40:00.402Z,8.12
2023-01-01T08:42:27.806Z,8.18
2023-01-01T08:44:55.240Z,8.15
2023-01-01T08:47:25.012Z,8.15
2023-01-01T08:49:52.831Z,8.14
2023-01-01T08:52:20.514Z,8.17
2023-01-01T08:54:47.965Z,8.21
2023-01-01T08:57:15.721Z,8.18
2023-01-01T08:59:43.468Z,8.21
2023-01-01T09:02:12.310Z,8.22
2023-01-01T09:04:39.856Z,8.20
2023-01-01T09:07:10.100Z,8.28
2023-01-01T09:09:37.601Z,8.34
2023-01-01T09:12:09.179Z,8.27
2023-01-01T09:14:36.645Z,8.32
2023-01-01T09:17:04.088Z,8.43
2023-01-01T09:19:31.525Z,8.46
2023-01-01T09:22:06.212Z,8.41
2023-01-01T09:24:33.599Z,8.37
2023-01-01T09:27:01.033Z,8.43
2023-01-01T09:29:28.543Z,8.49
2023-01-01T09:31:55.884Z,8.52
2023-01-01T09:34:23.385Z,8.51
2023-01-01T09:36:57.907Z,8.50
2023-01-01T09:39:25.406Z,8.50
2023-01-01T09:42:19.259Z,8.53
2023-01-01T09:44:49.352Z,8.58
2023-01-01T09:47:41.712Z,8.60
2023-01-01T09:50:16.478Z,8.62
2023-01-01T09:52:56.990Z,8.67
2023-01-01T09:56:00.529Z,8.84
2023-01-01T09:58:48.151Z,8.86
2023-01-01T10:01:50.012Z,8.88
2023-01-01T10:04:17.484Z,8.89
2023-01-01T10:07:17.937Z,8.86
2023-01-01T10:10:17.271Z,9.00
2023-01-01T10:13:07.826Z,8.97
2023-01-01T10:16:08.593Z,8.97
2023-01-01T10:18:46.461Z,8.97
2023-01-01T10:21:24.302Z,9.08
2023-01-01T10:23:59.715Z,9.03
2023-01-01T10:26:37.961Z,9.25
2023-01-01T10:29:15.495Z,9.21
2023-01-01T10:31:46.283Z,9.21
2023-01-01T10:34:22.418Z,9.17
2023-01-01T10:37:01.971Z,9.27
2023-01-01T10:39:30.039Z,9.22
2023-01-01T10:42:01.790Z,9.30
2023-01-01T10:44:32.493Z,9.50
2023-01-01T10:47:13.857Z,9.44
2023-01-01T10:49:58.973Z,9.48
2023-01-01T10:52:36.367Z,9.68
2023-01-01T10:55:05.374Z,9.70
2023-01-01T10:57:38.022Z,9.61
2023-01-01T11:00:13.783Z,9.66
2023-01-01T11:02:43.407Z,9.61
2023-01-01T11:05:21.937Z,9.74
2023-01-01T11:07:50.175Z,9.73
2023-01-01T11:10:31.192Z,9.73
2023-01-01T11:13:06.938Z,9.72
2023-01-01T11:15:36.871Z,9.70
2023-01-01T11:18:22.872Z,9.68
2023-01-01T11:21:03.889Z,9.71
2023-01-01T11:23:31.304Z,9.75
2023-01-01T11:25:58.799Z,9.68
2023-01-01T11:28:26.757Z,9.66
2023-01-01T11:31:17.853Z,9.75
2023-01-01T11:33:54.483Z,9.73
2023-01-01T11:36:23.412Z,9.83
2023-01-01T11:39:08.061Z,9.88
2023-01-01T11:41:47.089Z,9.74
2023-01-01T11:44:25.337Z,9.79
2023-01-01T11:46:52.798Z,9.85
2023-01-01T11:49:27.619Z,9.76
2023-01-01T11:51:55.266Z,9.70
2023-01-01T11:54:22.727Z,9.72
2023-01-01T11:56:54.243Z,9.68
2023-01-01T11:59:37.333Z,9.84
2023-01-01T12:02:11.151Z,9.77
2023-01-01T12:04:57.438Z,9.78
2023-01-01T12:07:31.824Z,9.74
2023-01-01T12:10:04.987Z,9.74
2023-01-01T12:12:38.462Z,9.74
2023-01-01T12:15:17.234Z,9.73
2023-01-01T12:18:03.822Z,9.75
2023-01-01T12:20:52.221Z,9.77
2023-01-01T12:23:19.863Z,9.81
2023-01-01T12:25:59.679Z,9.78
2023-01-01T12:29:09.011Z,9.93
2023-01-01T12:32:09.866Z,9.93
2023-01-01T12:34:52.395Z,9.93
2023-01-01T12:38:05.336Z,9.88
2023-01-01T12:40:46.325Z,9.91
2023-01-01T12:43:33.725Z,9.93
2023-01-01T12:46:04.091Z,9.94
2023-01-01T12:49:03.380Z,9.90
2023-01-01T12:51:44.961Z,9.96
2023-01-01T12:54:24.597Z,9.95
2023-01-01T12:57:24.457Z,9.91
2023-01-01T13:06:05.110Z,9.94
2023-01-01T13:08:55.895Z,9.79
2023-01-01T13:11:27.781Z,9.84
2023-01-01T13:13:56.068Z,9.81
2023-01-01T13:16:56.960Z,9.78
2023-01-01T13:19:37.331Z,9.80
2023-01-01T13:22:26.752Z,9.96
2023-01-01T13:25:12.830Z,9.87
2023-01-01T13:28:03.644Z,9.85
2023-01-01T13:30:41.625Z,9.84
2023-01-01T13:33:39.110Z,9.82
2023-01-01T13:36:19.208Z,9.76
2023-01-01T13:39:07.865Z,9.68
2023-01-01T13:41:54.200Z,9.70
2023-01-01T13:44:23.697Z,9.62
2023-01-01T13:47:21.476Z,9.60
2023-01-01T13:53:57.947Z,9.61
2023-01-01T13:56:49.569Z,9.57
2023-01-01T13:59:19.998Z,9.59
2023-01-01T14:02:17.196Z,9.59
2023-01-01T14:04:51.141Z,9.56
2023-01-01T14:10:30.629Z,9.56
2023-01-01T14:13:07.414Z,9.54
2023-01-01T14:15:37.526Z,9.52
2023-01-01T14:18:10.433Z,9.60
2023-01-01T14:20:45.604Z,9.52
2023-01-01T14:23:19.311Z,9.49
2023-01-01T14:25:47.343Z,9.48
2023-01-01T14:28:26.533Z,9.45
2023-01-01T14:30:56.149Z,9.46
2023-01-01T14:33:26.712Z,9.43
2023-01-01T14:36:02.446Z,9.44
2023-01-01T14:38:35.650Z,9.38
2023-01-01T14:41:42.731Z,9.36
2023-01-01T14:44:14.558Z,9.36
2023-01-01T14:46:46.202Z,9.37
2023-01-01T14:49:28.852Z,9.38
2023-01-01T14:52:22.236Z,9.37
2023-01-01T14:54:51.094Z,9.35
2023-01-01T14:57:25.466Z,9.45
2023-01-01T14:59:54.674Z,9.35
2023-01-01T15:02:37.170Z,9.39
2023-01-01T15:05:36.506Z,9.35
2023-01-01T15:08:06.839Z,9.33
2023-01-01T15:10:37.356Z,9.29
2023-01-01T15:13:07.352Z,9.20
2023-01-01T15:15:40.005Z,9.26
2023-01-01T15:18:39.336Z,9.25
2023-01-01T15:21:33.696Z,9.23
2023-01-01T15:24:04.834Z,9.16
2023-01-01T15:26:57.383Z,9.12
2023-01-01T15:29:34.564Z,9.13
2023-01-01T15:32:05.179Z,9.10
2023-01-01T15:34:40.085Z,9.08
2023-01-01T15:37:10.552Z,9.10
2023-01-01T15:39:49.699Z,9.07
2023-01-01T15:42:33.493Z,9.06
2023-01-01T15:45:23.291Z,9.11
2023-01-01T15:47:53.244Z,9.04
2023-01-01T15:50:33.113Z,9.01
2023-01-01T15:53:04.231Z,8.95
2023-01-01T15:55:34.808Z,8.96
2023-01-01T15:58:04.418Z,8.94
2023-01-01T16:00:38.287Z,8.95
2023-01-01T16:03:22.660Z,8.97
2023-01-01T16:05:53.071Z,8.94
2023-01-01T16:08:20.546Z,8.99
2023-01-01T16:10:48.796Z,8.97
2023-01-01T16:13:16.249Z,8.97
2023-01-01T16:15:53.780Z,8.94
2023-01-01T16:18:26.021Z,8.95
2023-01-01T16:20:55.020Z,8.94
2023-01-01T16:23:22.316Z,8.93
2023-01-01T16:25:49.709Z,8.92
2023-01-01T16:28:17.367Z,8.92
2023-01-01T16:30:48.932Z,8.90
2023-01-01T16:33:18.431Z,8.87
2023-01-01T16:35:46.355Z,8.88
2023-01-01T16:38:14.535Z,8.90
2023-01-01T16:40:41.930Z,8.86
2023-01-01T16:43:18.890Z,8.88
2023-01-01T16:45:46.385Z,8.86
2023-01-01T16:48:13.673Z,8.83
2023-01-01T16:50:40.937Z,8.87
2023-01-01T16:53:08.347Z,8.84
2023-01-01T16:55:35.686Z,8.83
2023-01-01T16:58:46.735Z,8.81
2023-01-01T17:00:58.396Z,8.84
2023-01-01T17:03:25.868Z,8.80
2023-01-01T17:05:53.558Z,8.80
2023-01-01T17:08:21.016Z,8.80
2023-01-01T17:10:48.392Z,8.76
2023-01-01T17:13:16.004Z,8.78
2023-01-01T17:15:43.315Z,8.76
2023-01-01T17:18:11.431Z,8.77
2023-01-01T17:20:38.716Z,8.72
2023-01-01T17:23:06.079Z,8.73
2023-01-01T17:25:33.421Z,8.72
2023-01-01T17:28:00.680Z,8.74
2023-01-01T17:30:28.088Z,8.76
2023-01-01T17:32:55.377Z,8.73
2023-01-01T17:35:22.889Z,8.71
2023-01-01T17:37:50.249Z,8.69
2023-01-01T17:40:17.576Z,8.67
2023-01-01T17:42:44.843Z,8.66
2023-01-01T17:45:13.066Z,8.66
2023-01-01T17:47:40.420Z,8.63
2023-01-01T17:50:08.202Z,8.66
2023-01-01T17:52:35.613Z,8.60
2023-01-01T17:55:03.100Z,8.59
2023-01-01T17:57:30.541Z,8.61
2023-01-01T17:59:59.400Z,8.61
2023-01-01T18:02:27.002Z,8.60
2023-01-01T18:04:54.738Z,8.60
2023-01-01T18:07:22.180Z,8.59
2023-01-01T18:09:49.594Z,8.58
2023-01-01T18:12:16.847Z,8.60
2023-01-01T18:14:44.164Z,8.61
2023-01-01T18:17:11.593Z,8.60
2023-01-01T18:19:39.046Z,8.57
2023-01-01T18:22:06.777Z,8.57
2023-01-01T18:24:34.855Z,8.59
2023-01-01T18:27:02.156Z,8.58
2023-01-01T18:29:29.480Z,8.55
2023-01-01T18:31:56.864Z,8.52
2023-01-01T18:34:24.156Z,8.51
2023-01-01T18:36:55.267Z,8.53
2023-01-01T18:39:27.070Z,8.51
2023-01-01T18:41:57.369Z,8.51
2023-01-01T18:44:27.508Z,8.51
2023-01-01T18:47:04.159Z,8.51
2023-01-01T18:49:31.928Z,8.50
2023-01-01T18:52:06.394Z,8.48
2023-01-01T18:54:34.954Z,8.53
2023-01-01T18:57:13.844Z,8.49
2023-01-01T18:59:41.304Z,8.50
2023-01-01T19:02:47.238Z,8.52
2023-01-01T19:05:19.491Z,8.54
2023-01-01T19:08:07.089Z,8.53
2023-01-01T19:10:38.655Z,8.53
2023-01-01T19:13:13.914Z,8.53
2023-01-01T19:15:43.747Z,8.54
2023-01-01T19:18:25.688Z,8.54
2023-01-01T19:21:12.597Z,8.51
2023-01-01T19:23:46.004Z,8.56
2023-01-01T19:26:27.816Z,8.50
2023-01-01T19:28:57.201Z,8.52
2023-01-01T19:31:24.658Z,8.54
2023-01-01T19:33:52.051Z,8.59
2023-01-01T19:36:20.275Z,8.57
2023-01-01T19:38:47.641Z,8.60
2023-01-01T19:41:15.138Z,8.58
2023-01-01T19:43:42.423Z,8.65
2023-01-01T19:46:09.872Z,8.63
2023-01-01T19:48:37.242Z,8.60
2023-01-01T19:51:06.480Z,8.62
2023-01-01T19:53:33.811Z,8.59
2023-01-01T19:56:01.121Z,8.57
2023-01-01T19:58:28.462Z,8.49
2023-01-01T20:00:56.403Z,8.49
2023-01-01T20:03:52.770Z,8.52
2023-01-01T20:06:11.996Z,8.47
2023-01-01T20:08:39.652Z,8.45
2023-01-01T20:11:07.469Z,8.50
2023-01-01T20:13:35.036Z,8.43
2023-01-01T20:16:03.070Z,8.45
2023-01-01T20:18:30.966Z,8.48
2023-01-01T20:21:25.676Z,8.47
2023-01-01T20:23:55.158Z,8.49
2023-01-01T20:26:23.933Z,8.47
2023-01-01T20:29:10.398Z,8.47
2023-01-01T20:31:38.202Z,8.45
2023-01-01T20:34:05.918Z,8.40
2023-01-01T20:36:52.005Z,8.44
2023-01-01T20:39:19.569Z,8.42
2023-01-01T20:41:47.134Z,8.44
2023-01-01T20:44:14.759Z,8.41
2023-01-01T20:46:42.494Z,8.43
2023-01-01T20:49:10.292Z,8.46
2023-01-01T20:51:38.267Z,8.45
2023-01-01T20:54:06.372Z,8.43
2023-01-01T20:56:34.236Z,8.39
2023-01-01T20:59:24.261Z,8.41
2023-01-01T21:01:50.579Z,8.42
2023-01-01T21:04:18.723Z,8.40
2023-01-01T21:06:47.726Z,8.39
2023-01-01T21:09:15.303Z,8.35
2023-01-01T21:11:42.879Z,8.35
2023-01-01T21:14:10.158Z,8.42
2023-01-01T21:16:46.578Z,8.42
2023-01-01T21:19:14.212Z,8.42
2023-01-01T21:21:47.769Z,8.43
2023-01-01T21:24:20.018Z,8.42
2023-01-01T21:26:47.963Z,8.41
2023-01-01T21:29:18.207Z,8.42
2023-01-01T21:31:46.221Z,8.42
2023-01-01T21:34:36.813Z,8.40
2023-01-01T21:37:42.781Z,8.41
2023-01-01T21:40:22.194Z,8.43
2023-01-01T21:42:49.543Z,8.39
2023-01-01T21:45:25.018Z,8.39
2023-01-01T21:47:52.166Z,8.36
2023-01-01T21:50:25.066Z,8.36
2023-01-01T21:53:00.055Z,8.34
2023-01-01T21:55:49.927Z,8.33
2023-01-01T21:58:35.796Z,8.26
2023-01-01T22:01:24.058Z,8.24
2023-01-01T22:03:58.960Z,8.18
2023-01-01T22:06:35.925Z,8.14
2023-01-01T22:09:11.061Z,8.10
2023-01-01T22:11:38.299Z,8.04
2023-01-01T22:14:11.653Z,7.99
2023-01-01T22:16:38.852Z,7.98
2023-01-01T22:19:17.395Z,7.95
2023-01-01T22:21:45.850Z,7.94
2023-01-01T22:24:33.049Z,7.93
2023-01-01T22:27:15.553Z,7.93
2023-01-01T22:29:43.965Z,7.97
2023-01-01T22:32:21.483Z,7.95
2023-01-01T22:34:48.897Z,7.97
2023-01-01T22:37:19.019Z,7.96
2023-01-01T22:39:46.685Z,8.00
2023-01-01T22:42:15.268Z,8.03
2023-01-01T22:44:42.850Z,8.00
2023-01-01T22:47:15.614Z,8.02
2023-01-01T22:49:46.884Z,8.03
2023-01-01T22:52:14.049Z,8.08
2023-01-01T22:54:41.312Z,8.08
2023-01-01T22:57:08.487Z,8.08
2023-01-01T22:59:35.770Z,8.08
2023-01-01T23:02:03.620Z,8.10
2023-01-01T23:04:30.892Z,8.12
2023-01-01T23:06:58.073Z,8.15
2023-01-01T23:09:25.323Z,8.15
2023-01-01T23:11:53.405Z,8.15
2023-01-01T23:14:39.468Z,8.15
2023-01-01T23:17:06.968Z,8.14
2023-01-01T23:19:34.188Z,8.13
2023-01-01T23:22:02.076Z,8.14
2023-01-01T23:24:30.275Z,8.11
2023-01-01T23:26:58.631Z,8.13
2023-01-01T23:29:27.881Z,8.15
2023-01-01T23:31:55.133Z,8.16
2023-01-01T23:34:23.491Z,8.16
2023-01-01T23:36:52.009Z,8.16
2023-01-01T23:39:19.207Z,8.16
2023-01-01T23:41:47.446Z,8.16
2023-01-01T23:44:14.639Z,8.17
2023-01-01T23:46:41.802Z,8.19
2023-01-01T23:49:09.149Z,8.20
2023-01-01T23:51:37.644Z,8.22
2023-01-01T23:54:04.898Z,8.18
2023-01-01T23:56:32.054Z,8.18
2023-01-01T23:58:59.420Z,8.18
